Overview Statistics Trail Chart Weather Telemetry Raw packets
 

This is the latest recevied weather packets stored in our database for station/object W7BTL. If no packets are shown the sender has not sent any weather packets the latest 10 day(s).

<< 26 27 28 29 30 31 32 >>
Time Temp. Humidity Pressure Rain* Wind** Luminosity Snow
1788478899 27.78° C 52% 1011.2 hPa 0 mm - 366 W/m² -
1788478595 28.33° C 50% 1011.2 hPa 0 mm - 388 W/m² -
1788478290 27.78° C 51% 1011.3 hPa 0 mm - 409 W/m² -
1788477984 28.33° C 51% 1011.2 hPa 0 mm - 419 W/m² -
1788477681 28.33° C 51% 1011.3 hPa 0 mm - 451 W/m² -
1788477375 28.33° C 51% 1011.2 hPa 0 mm - 470 W/m² -
1788477074 28.89° C 50% 1011.4 hPa 0 mm - 498 W/m² -
1788476770 28.89° C 51% 1011.3 hPa 0 mm - 513 W/m² -
1788476469 29.44° C 48% 1011.6 hPa 0 mm - 529 W/m² -
1788476167 30° C 46% 1011.3 hPa 0 mm - 556 W/m² -
1788475863 30.56° C 43% 1011.4 hPa 0 mm - 577 W/m² -
1788475559 30.56° C 44% 1011.4 hPa 0 mm - 595 W/m² -
1788475255 30.56° C 44% 1011.4 hPa 0 mm - 620 W/m² -
1788474987 30.56° C 45% 1011.6 hPa 0 mm - 640 W/m² -
1788474653 30.56° C 44% 1011.8 hPa 0 mm - 663 W/m² -
1788474348 30.56° C 44% 1011.9 hPa 0 mm - 678 W/m² -
1788474047 30.56° C 43% 1011.8 hPa 0 mm - 702 W/m² -
1788473743 30.56° C 44% 1011.7 hPa 0 mm - 716 W/m² -
1788473440 30.56° C 44% 1011.9 hPa 0 mm - 737 W/m² -
1788473140 30° C 44% 1011.9 hPa 0 mm - 747 W/m² -
1788472839 30° C 43% 1012.1 hPa 0 mm - 769 W/m² -
1788472539 30° C 46% 1012.1 hPa 0 mm - 780 W/m² -
1788472238 30° C 43% 1011.9 hPa 0 mm - 799 W/m² -
1788471938 29.44° C 46% 1012.2 hPa 0 mm - 813 W/m² -
1788471633 29.44° C 46% 1012.1 hPa 0 mm - 829 W/m² -

* Rain latest hour (hover to see other rain measurements)
** Current wind speed in m/s (hover to see current wind gust speed)